1PS8 weather

Punxsutawney Area Hospital Heliport
Punxsutawney, Pennsylvania, United States

Public forecast

Using degrees Fahrenheit for public forecast. Weather courtesy of forecast.io.

Closest aviation weather report (METAR) to Punxsutawney Area Hospital Heliport

Closest report is DuBois Regional Airport, 13.8 nm (25.6 km) NNE. Retrieved 2020/08/06 12:53 UTC (37 minutes ago):

KDUJ 061253Z AUTO 08006KT 10SM SCT070 17/11 A3017 RMK AO2 SLP208 T01670106

Closest aviation forecast (TAF) to Punxsutawney Area Hospital Heliport

Closest forecast is DuBois Regional Airport, 13.8 nm (25.6 km) NNE. Retrieved 2020/08/06 12:22 UTC (1 hour ago):

TAF KDUJ 061120Z 0612/0712 VRB03KT P6SM BKN080 FM070900 VRB03KT P6SM BKN025